createdAt,value
2022-12-08T00:01:21.746Z,19.70
2022-12-08T00:03:48.875Z,21.00
2022-12-08T00:06:47.058Z,18.03
2022-12-08T00:09:29.126Z,21.33
2022-12-08T00:11:59.834Z,20.53
2022-12-08T00:14:35.894Z,21.43
2022-12-08T00:17:04.418Z,20.27
2022-12-08T00:19:33.111Z,19.23
2022-12-08T00:22:00.034Z,18.87
2022-12-08T00:24:33.418Z,19.50
2022-12-08T00:27:00.384Z,18.80
2022-12-08T00:29:27.571Z,22.00
2022-12-08T00:31:54.461Z,18.67
2022-12-08T00:34:21.391Z,20.40
2022-12-08T00:36:48.945Z,22.80
2022-12-08T00:39:17.889Z,23.37
2022-12-08T00:42:03.584Z,17.67
2022-12-08T00:44:30.334Z,20.83
2022-12-08T00:46:57.304Z,21.93
2022-12-08T00:49:24.049Z,26.33
2022-12-08T00:51:50.904Z,19.77
2022-12-08T00:54:19.047Z,20.73
2022-12-08T00:56:46.545Z,25.03
2022-12-08T00:59:14.418Z,26.03
2022-12-08T01:01:41.606Z,19.87
2022-12-08T01:04:11.910Z,20.30
2022-12-08T01:06:39.418Z,18.73
2022-12-08T01:09:07.774Z,19.33
2022-12-08T01:11:36.152Z,20.27
2022-12-08T01:14:04.117Z,23.00
2022-12-08T01:16:34.294Z,21.50
2022-12-08T01:19:01.775Z,18.63
2022-12-08T01:21:29.308Z,36.70
2022-12-08T01:23:56.278Z,57.97
2022-12-08T01:26:23.025Z,28.73
2022-12-08T01:28:49.795Z,21.77
2022-12-08T01:31:21.370Z,19.43
2022-12-08T01:33:49.252Z,18.80
2022-12-08T01:36:25.177Z,22.33
2022-12-08T01:38:52.942Z,23.90
2022-12-08T01:41:22.758Z,19.87
2022-12-08T01:44:24.819Z,21.03
2022-12-08T01:46:53.684Z,23.47
2022-12-08T01:49:31.125Z,23.10
2022-12-08T01:52:25.790Z,20.53
2022-12-08T01:55:06.473Z,27.50
2022-12-08T01:57:55.872Z,20.07
2022-12-08T02:00:23.408Z,22.23
2022-12-08T02:02:56.588Z,20.93
2022-12-08T02:05:30.733Z,21.70
2022-12-08T02:07:58.762Z,22.33
2022-12-08T02:10:29.492Z,21.70
2022-12-08T02:12:58.357Z,22.63
2022-12-08T02:15:37.012Z,18.90
2022-12-08T02:18:28.184Z,21.97
2022-12-08T02:20:57.745Z,21.17
2022-12-08T02:23:33.901Z,18.97
2022-12-08T02:26:19.832Z,20.07
2022-12-08T02:29:08.231Z,21.77
2022-12-08T02:31:55.673Z,21.00
2022-12-08T02:34:40.320Z,18.67
2022-12-08T02:37:21.119Z,19.20
2022-12-08T02:40:07.249Z,18.90
2022-12-08T02:43:04.791Z,20.50
2022-12-08T02:46:02.456Z,18.33
2022-12-08T02:48:29.875Z,20.30
2022-12-08T02:50:56.618Z,18.77
2022-12-08T02:53:23.445Z,17.10
2022-12-08T02:56:01.618Z,24.47
2022-12-08T02:58:53.235Z,17.97
2022-12-08T03:02:05.900Z,19.17
2022-12-08T03:04:55.574Z,23.27
2022-12-08T03:07:40.358Z,18.37
2022-12-08T03:10:13.581Z,20.77
2022-12-08T03:12:58.349Z,16.60
2022-12-08T03:15:25.134Z,20.23
2022-12-08T03:17:56.933Z,19.33
2022-12-08T03:20:25.981Z,24.73
2022-12-08T03:22:55.917Z,18.00
2022-12-08T03:25:25.988Z,20.07
2022-12-08T03:27:53.864Z,20.07
2022-12-08T03:30:20.925Z,21.10
2022-12-08T03:33:04.316Z,19.50
2022-12-08T03:35:34.585Z,20.57
2022-12-08T03:38:10.829Z,19.90
2022-12-08T03:40:38.971Z,19.13
2022-12-08T03:43:06.337Z,18.87
2022-12-08T03:45:34.563Z,20.13
2022-12-08T03:48:01.449Z,21.13
2022-12-08T03:50:28.522Z,20.57
2022-12-08T03:52:55.325Z,20.73
2022-12-08T03:55:22.042Z,17.07
2022-12-08T03:57:49.633Z,16.03
2022-12-08T04:00:17.077Z,19.73
2022-12-08T04:02:44.095Z,22.03
2022-12-08T04:05:11.014Z,18.03
2022-12-08T04:07:37.907Z,18.77
2022-12-08T04:10:06.184Z,18.23
2022-12-08T04:12:33.166Z,17.97
2022-12-08T04:14:59.850Z,17.60
2022-12-08T04:17:26.618Z,16.67
2022-12-08T04:19:53.322Z,20.10
2022-12-08T04:22:21.366Z,15.00
2022-12-08T04:24:48.244Z,17.20
2022-12-08T04:27:14.968Z,17.27
2022-12-08T04:29:41.666Z,16.60
2022-12-08T04:32:08.285Z,15.77
2022-12-08T04:34:35.851Z,15.20
2022-12-08T04:37:02.579Z,19.93
2022-12-08T04:39:29.639Z,17.17
2022-12-08T04:41:56.379Z,18.03
2022-12-08T04:44:23.130Z,13.97
2022-12-08T04:46:50.067Z,18.27
2022-12-08T04:49:16.789Z,16.90
2022-12-08T04:51:43.533Z,15.37
2022-12-08T04:54:10.213Z,18.23
2022-12-08T04:56:37.090Z,18.57
2022-12-08T04:59:05.115Z,17.40
2022-12-08T05:01:32.173Z,16.10
2022-12-08T05:03:59.080Z,20.57
2022-12-08T05:06:25.945Z,17.90
2022-12-08T05:08:52.728Z,14.50
2022-12-08T05:11:20.243Z,19.83
2022-12-08T05:13:47.560Z,16.43
2022-12-08T05:16:15.967Z,17.63
2022-12-08T05:18:43.423Z,20.07
2022-12-08T05:21:10.578Z,18.53
2022-12-08T05:23:37.319Z,14.57
2022-12-08T05:26:05.540Z,14.77
2022-12-08T05:28:42.618Z,15.47
2022-12-08T05:31:11.753Z,17.10
2022-12-08T05:33:38.628Z,13.83
2022-12-08T05:36:06.908Z,15.83
2022-12-08T05:38:34.011Z,18.17
2022-12-08T05:41:00.717Z,15.77
2022-12-08T05:43:27.535Z,17.47
2022-12-08T05:45:54.341Z,16.67
2022-12-08T05:48:21.921Z,15.83
2022-12-08T05:50:50.748Z,15.23
2022-12-08T05:53:20.449Z,14.70
2022-12-08T05:55:47.804Z,17.97
2022-12-08T05:58:20.921Z,18.33
2022-12-08T06:00:48.886Z,15.83
2022-12-08T06:03:17.994Z,16.47
2022-12-08T06:05:46.306Z,18.93
2022-12-08T06:08:13.646Z,16.50
2022-12-08T06:10:42.428Z,14.47
2022-12-08T06:13:09.174Z,14.27
2022-12-08T06:15:38.638Z,18.27
2022-12-08T06:18:07.153Z,13.07
2022-12-08T06:20:36.073Z,15.30
2022-12-08T06:23:03.870Z,19.10
2022-12-08T06:25:30.796Z,15.73
2022-12-08T06:27:57.533Z,12.73
2022-12-08T06:30:24.232Z,14.20
2022-12-08T06:32:51.076Z,13.10
2022-12-08T06:35:17.875Z,11.90
2022-12-08T06:37:44.565Z,14.00
2022-12-08T06:40:11.897Z,12.90
2022-12-08T06:42:44.233Z,14.80
2022-12-08T06:45:13.002Z,13.27
2022-12-08T06:47:40.148Z,15.17
2022-12-08T06:50:10.412Z,16.13
2022-12-08T06:52:44.067Z,13.53
2022-12-08T06:55:35.284Z,15.27
2022-12-08T06:58:00.940Z,13.70
2022-12-08T07:00:27.607Z,13.70
2022-12-08T07:02:54.460Z,13.50
2022-12-08T07:05:21.286Z,12.23
2022-12-08T07:07:48.028Z,13.17
2022-12-08T07:10:14.760Z,12.27
2022-12-08T07:12:41.425Z,13.37
2022-12-08T07:15:08.781Z,12.70
2022-12-08T07:17:36.186Z,9.03
2022-12-08T07:20:03.846Z,14.93
2022-12-08T07:22:30.906Z,10.43
2022-12-08T07:24:57.616Z,9.20
2022-12-08T07:27:24.418Z,8.93
2022-12-08T07:29:51.637Z,10.70
2022-12-08T07:32:18.378Z,12.83
2022-12-08T07:34:47.277Z,10.33
2022-12-08T07:37:14.294Z,13.17
2022-12-08T07:39:41.475Z,11.87
2022-12-08T07:42:08.578Z,8.80
2022-12-08T07:44:38.132Z,10.60
2022-12-08T07:47:05.117Z,10.33
2022-12-08T07:49:31.886Z,10.33
2022-12-08T07:51:58.705Z,9.77
2022-12-08T07:54:25.351Z,9.07
2022-12-08T07:56:52.882Z,9.73
2022-12-08T07:59:21.738Z,11.90
2022-12-08T08:02:05.076Z,10.97
2022-12-08T08:04:37.103Z,11.00
2022-12-08T08:07:03.871Z,9.73
2022-12-08T08:09:30.607Z,9.13
2022-12-08T08:12:28.899Z,12.53
2022-12-08T08:14:44.337Z,11.33
2022-12-08T08:17:11.741Z,9.23
2022-12-08T08:19:38.663Z,11.13
2022-12-08T08:22:05.406Z,11.70
2022-12-08T08:24:32.160Z,11.27
2022-12-08T08:26:58.961Z,12.50
2022-12-08T08:29:25.927Z,11.07
2022-12-08T08:31:53.639Z,8.67
2022-12-08T08:34:20.393Z,8.90
2022-12-08T08:36:47.293Z,6.83
2022-12-08T08:39:14.432Z,5.63
2022-12-08T08:41:41.690Z,4.90
2022-12-08T08:44:08.843Z,4.70
2022-12-08T08:46:35.681Z,5.43
2022-12-08T08:49:02.637Z,5.13
2022-12-08T08:51:29.368Z,5.37
2022-12-08T08:53:57.304Z,5.10
2022-12-08T08:56:24.326Z,4.03
2022-12-08T08:58:53.587Z,5.23
2022-12-08T09:01:24.781Z,5.33
2022-12-08T09:03:52.705Z,6.17
2022-12-08T09:06:20.482Z,4.73
2022-12-08T09:08:48.186Z,4.67
2022-12-08T09:11:15.410Z,5.70
2022-12-08T09:13:42.411Z,4.77
2022-12-08T09:16:11.105Z,5.03
2022-12-08T09:18:39.024Z,5.73
2022-12-08T09:21:09.013Z,5.83
2022-12-08T09:23:38.102Z,5.47
2022-12-08T09:26:05.743Z,5.43
2022-12-08T09:28:33.033Z,5.70
2022-12-08T09:31:00.302Z,5.40
2022-12-08T09:33:27.784Z,5.60
2022-12-08T09:35:54.698Z,6.27
2022-12-08T09:38:21.832Z,5.47
2022-12-08T09:40:53.381Z,6.37
2022-12-08T09:44:00.592Z,5.87
2022-12-08T09:46:30.656Z,6.63
2022-12-08T09:49:00.843Z,6.83
2022-12-08T09:51:33.925Z,6.40
2022-12-08T09:54:09.410Z,7.63
2022-12-08T09:56:38.553Z,7.03
2022-12-08T09:59:24.590Z,7.47
2022-12-08T10:01:52.067Z,7.90
2022-12-08T10:04:32.027Z,7.00
2022-12-08T10:07:21.020Z,7.10
2022-12-08T10:10:25.396Z,8.00
2022-12-08T10:13:11.685Z,8.17
2022-12-08T10:16:04.084Z,9.13
2022-12-08T10:18:33.059Z,10.03
2022-12-08T10:21:18.927Z,9.03
2022-12-08T10:23:52.288Z,9.10
2022-12-08T10:26:23.375Z,9.87
2022-12-08T10:28:51.122Z,9.40
2022-12-08T10:31:25.131Z,8.30
2022-12-08T10:34:13.660Z,9.07
2022-12-08T10:36:47.990Z,6.57
2022-12-08T10:39:33.259Z,7.20
2022-12-08T10:42:15.607Z,9.77
2022-12-08T10:44:57.340Z,8.77
2022-12-08T10:47:27.101Z,8.20
2022-12-08T10:50:21.227Z,11.53
2022-12-08T10:53:01.020Z,9.57
2022-12-08T10:55:29.725Z,8.20
2022-12-08T10:57:56.407Z,5.70
2022-12-08T11:00:28.476Z,5.70
2022-12-08T11:03:01.395Z,6.13
2022-12-08T11:05:34.952Z,5.70
2022-12-08T11:08:02.896Z,5.23
2022-12-08T11:10:44.831Z,6.67
2022-12-08T11:13:21.550Z,2.87
2022-12-08T11:15:49.468Z,2.60
2022-12-08T11:18:28.653Z,2.40
2022-12-08T11:20:59.818Z,2.53
2022-12-08T11:23:28.395Z,2.87
2022-12-08T11:26:02.837Z,3.30
2022-12-08T11:28:29.935Z,3.40
2022-12-08T11:31:07.849Z,4.00
2022-12-08T11:33:34.803Z,4.40
2022-12-08T11:36:12.915Z,5.23
2022-12-08T11:38:46.434Z,3.37
2022-12-08T11:41:17.970Z,2.93
2022-12-08T11:43:44.917Z,3.33
2022-12-08T11:46:25.341Z,4.83
2022-12-08T11:49:06.786Z,3.20
2022-12-08T11:51:38.185Z,6.77
2022-12-08T11:54:34.266Z,4.37
2022-12-08T11:57:03.153Z,6.90
2022-12-08T11:59:34.666Z,5.30
2022-12-08T12:02:04.769Z,6.37
2022-12-08T12:04:40.703Z,13.37
2022-12-08T12:07:26.644Z,4.40
2022-12-08T12:10:16.885Z,3.10
2022-12-08T12:13:05.401Z,4.83
2022-12-08T12:15:41.262Z,9.73
2022-12-08T12:18:30.341Z,5.53
2022-12-08T12:20:57.055Z,9.37
2022-12-08T12:23:38.481Z,5.63
2022-12-08T12:26:08.500Z,7.67
2022-12-08T12:28:58.075Z,6.10
2022-12-08T12:31:41.625Z,5.40
2022-12-08T12:34:14.708Z,5.47
2022-12-08T12:37:19.129Z,5.57
2022-12-08T12:39:52.402Z,6.43
2022-12-08T12:42:49.210Z,6.37
2022-12-08T12:45:22.231Z,14.13
2022-12-08T12:48:10.114Z,7.67
2022-12-08T12:50:46.942Z,7.83
2022-12-08T12:53:16.724Z,6.93
2022-12-08T12:55:46.625Z,10.97
2022-12-08T12:58:28.794Z,6.03
2022-12-08T13:01:08.799Z,4.87
2022-12-08T13:03:42.367Z,5.63
2022-12-08T13:06:15.094Z,7.70
2022-12-08T13:08:53.929Z,4.77
2022-12-08T13:11:26.152Z,4.20
2022-12-08T13:13:58.771Z,4.60
2022-12-08T13:16:28.819Z,6.07
2022-12-08T13:19:05.829Z,5.87
2022-12-08T13:21:38.702Z,4.23
2022-12-08T13:24:17.921Z,2.07
2022-12-08T13:27:03.767Z,2.57
2022-12-08T13:29:37.717Z,6.37
2022-12-08T13:32:04.472Z,4.40
2022-12-08T13:35:00.289Z,3.80
2022-12-08T13:37:53.972Z,7.23
2022-12-08T13:40:30.423Z,3.60
2022-12-08T13:43:28.245Z,8.27
2022-12-08T13:46:57.607Z,13.87
2022-12-08T13:50:31.285Z,5.43
2022-12-08T13:57:30.805Z,2.73
2022-12-08T14:00:14.828Z,1.70
2022-12-08T14:02:47.997Z,1.93
2022-12-08T14:05:34.865Z,2.40
2022-12-08T14:08:30.105Z,3.47
2022-12-08T14:11:05.268Z,3.63
2022-12-08T14:13:33.968Z,4.47
2022-12-08T14:16:00.946Z,6.17
2022-12-08T14:18:30.965Z,4.50
2022-12-08T14:21:21.369Z,8.20
2022-12-08T14:23:48.776Z,5.10
2022-12-08T14:26:15.947Z,6.27
2022-12-08T14:28:45.263Z,6.67
2022-12-08T14:31:14.762Z,7.33
2022-12-08T14:33:43.200Z,8.90
2022-12-08T14:36:14.602Z,7.50
2022-12-08T14:38:42.971Z,7.87
2022-12-08T14:41:12.552Z,6.70
2022-12-08T14:43:41.394Z,3.90
2022-12-08T14:46:22.709Z,6.67
2022-12-08T14:48:49.901Z,6.17
2022-12-08T14:51:19.323Z,6.30
2022-12-08T14:53:47.829Z,7.50
2022-12-08T14:56:23.235Z,5.27
2022-12-08T14:59:03.192Z,5.80
2022-12-08T15:01:31.100Z,4.67
2022-12-08T15:04:07.037Z,5.20
2022-12-08T15:06:34.042Z,6.90
2022-12-08T15:09:17.130Z,4.63
2022-12-08T15:11:44.040Z,8.67
2022-12-08T15:14:36.109Z,5.77
2022-12-08T15:17:03.774Z,4.93
2022-12-08T15:19:33.332Z,7.90
2022-12-08T15:22:19.673Z,7.30
2022-12-08T15:24:46.481Z,5.93
2022-12-08T15:27:21.704Z,8.30
2022-12-08T15:29:48.902Z,6.37
2022-12-08T15:32:23.960Z,5.83
2022-12-08T15:34:50.973Z,7.17
2022-12-08T15:37:22.597Z,8.57
2022-12-08T15:39:49.837Z,7.40
2022-12-08T15:42:16.784Z,6.77
2022-12-08T15:44:43.972Z,7.40
2022-12-08T15:47:16.767Z,6.73
2022-12-08T15:49:44.182Z,6.47
2022-12-08T15:52:28.985Z,8.83
2022-12-08T15:54:55.930Z,8.07
2022-12-08T15:58:10.934Z,6.00
2022-12-08T16:00:51.324Z,6.87
2022-12-08T16:07:12.470Z,6.57
2022-12-08T16:09:17.605Z,7.50
2022-12-08T16:12:07.267Z,7.07
2022-12-08T16:17:21.797Z,8.63
2022-12-08T16:19:49.582Z,8.57
2022-12-08T16:25:21.704Z,8.27
2022-12-08T16:28:12.301Z,7.60
2022-12-08T16:30:40.162Z,9.50
2022-12-08T16:33:07.063Z,7.90
2022-12-08T16:35:34.101Z,11.20
2022-12-08T16:38:01.109Z,9.67
2022-12-08T16:40:29.151Z,8.30
2022-12-08T16:42:55.898Z,9.37
2022-12-08T16:45:25.470Z,7.37
2022-12-08T16:48:00.646Z,8.00
2022-12-08T16:50:30.934Z,9.40
2022-12-08T16:53:06.979Z,8.03
2022-12-08T16:55:34.497Z,10.73
2022-12-08T16:58:02.709Z,9.50
2022-12-08T17:00:30.990Z,9.13
2022-12-08T17:02:59.102Z,9.70
2022-12-08T17:05:26.840Z,12.23
2022-12-08T17:07:54.903Z,9.17
2022-12-08T17:10:25.519Z,7.43
2022-12-08T17:12:53.357Z,7.77
2022-12-08T17:15:23.033Z,5.17
2022-12-08T17:17:50.402Z,5.80
2022-12-08T17:20:23.005Z,8.10
2022-12-08T17:22:50.483Z,8.53
2022-12-08T17:25:17.675Z,9.70
2022-12-08T17:27:44.447Z,12.30
2022-12-08T17:30:15.555Z,9.07
2022-12-08T17:32:43.945Z,17.97
2022-12-08T17:35:11.787Z,8.77
2022-12-08T17:37:40.976Z,8.53
2022-12-08T17:40:08.616Z,11.90
2022-12-08T17:42:35.514Z,9.63
2022-12-08T17:45:03.172Z,7.37
2022-12-08T17:47:30.074Z,5.97
2022-12-08T17:49:57.365Z,6.47
2022-12-08T17:52:24.940Z,10.13
2022-12-08T17:54:51.726Z,7.57
2022-12-08T17:57:18.472Z,8.47
2022-12-08T17:59:45.286Z,9.10
2022-12-08T18:02:12.578Z,10.20
2022-12-08T18:04:40.047Z,9.43
2022-12-08T18:07:06.783Z,9.83
2022-12-08T18:09:34.130Z,8.17
2022-12-08T18:12:00.888Z,8.70
2022-12-08T18:14:28.541Z,8.77
2022-12-08T18:16:55.455Z,9.43
2022-12-08T18:19:22.672Z,10.27
2022-12-08T18:21:49.490Z,9.80
2022-12-08T18:24:19.603Z,12.20
2022-12-08T18:26:47.153Z,9.00
2022-12-08T18:29:14.760Z,10.53
2022-12-08T18:31:41.519Z,11.77
2022-12-08T18:34:08.365Z,13.40
2022-12-08T18:36:35.171Z,14.83
2022-12-08T18:39:07.192Z,10.40
2022-12-08T18:41:37.136Z,10.47
2022-12-08T18:44:03.989Z,10.37
2022-12-08T18:46:30.792Z,10.60
2022-12-08T18:48:58.127Z,9.87
2022-12-08T18:51:25.434Z,12.43
2022-12-08T18:53:53.142Z,15.30
2022-12-08T18:56:32.040Z,16.50
2022-12-08T18:59:03.835Z,11.53
2022-12-08T19:01:36.754Z,12.97
2022-12-08T19:06:54.208Z,11.67
2022-12-08T19:09:21.426Z,12.87
2022-12-08T19:11:48.775Z,11.60
2022-12-08T19:14:15.753Z,13.63
2022-12-08T19:16:42.663Z,12.90
2022-12-08T19:19:09.889Z,11.37
2022-12-08T19:21:44.548Z,11.87
2022-12-08T19:24:13.313Z,13.83
2022-12-08T19:26:40.783Z,14.87
2022-12-08T19:29:07.631Z,13.27
2022-12-08T19:31:35.143Z,11.13
2022-12-08T19:34:01.905Z,16.80
2022-12-08T19:36:35.473Z,12.27
2022-12-08T19:39:23.583Z,11.03
2022-12-08T19:42:09.410Z,14.57
2022-12-08T19:44:54.461Z,15.03
2022-12-08T19:47:24.456Z,13.07
2022-12-08T19:49:53.944Z,13.83
2022-12-08T19:52:21.093Z,13.10
2022-12-08T19:54:47.942Z,16.13
2022-12-08T19:57:16.310Z,14.20
2022-12-08T19:59:43.178Z,15.03
2022-12-08T20:02:11.357Z,15.87
2022-12-08T20:04:38.456Z,13.73
2022-12-08T20:07:05.719Z,14.13
2022-12-08T20:09:33.218Z,13.43
2022-12-08T20:12:02.004Z,14.00
2022-12-08T20:14:29.134Z,13.47
2022-12-08T20:16:56.555Z,14.17
2022-12-08T20:19:23.357Z,16.30
2022-12-08T20:21:50.274Z,12.30
2022-12-08T20:24:17.443Z,12.00
2022-12-08T20:26:45.159Z,10.93
2022-12-08T20:29:17.160Z,11.60
2022-12-08T20:31:45.619Z,13.77
2022-12-08T20:34:17.740Z,12.77
2022-12-08T20:36:46.768Z,15.07
2022-12-08T20:39:16.615Z,11.23
2022-12-08T20:41:45.628Z,12.67
2022-12-08T20:44:12.872Z,14.10
2022-12-08T20:46:41.781Z,13.53
2022-12-08T20:49:10.570Z,13.93
2022-12-08T20:51:37.301Z,17.03
2022-12-08T20:54:09.886Z,22.70
2022-12-08T20:56:36.795Z,47.87
2022-12-08T20:59:03.910Z,93.10
2022-12-08T21:01:32.147Z,89.57
2022-12-08T21:03:59.223Z,88.40
2022-12-08T21:06:28.209Z,68.70
2022-12-08T21:08:55.174Z,55.53
2022-12-08T21:11:22.200Z,36.00
2022-12-08T21:13:49.385Z,24.57
2022-12-08T21:16:17.398Z,17.83
2022-12-08T21:18:44.353Z,16.93
2022-12-08T21:21:14.316Z,16.50
2022-12-08T21:23:43.180Z,13.87
2022-12-08T21:26:19.083Z,14.77
2022-12-08T21:28:47.902Z,17.10
2022-12-08T21:31:19.398Z,13.13
2022-12-08T21:33:47.698Z,16.63
2022-12-08T21:36:17.753Z,14.53
2022-12-08T21:38:46.890Z,13.43
2022-12-08T21:41:37.961Z,16.73
2022-12-08T21:44:06.346Z,11.83
2022-12-08T21:46:33.287Z,12.67
2022-12-08T21:49:01.220Z,15.30
2022-12-08T21:51:28.651Z,17.43
2022-12-08T21:53:55.383Z,13.13
2022-12-08T21:56:22.813Z,17.47
2022-12-08T21:58:50.076Z,16.80
2022-12-08T22:01:17.612Z,14.30
2022-12-08T22:03:44.665Z,17.47
2022-12-08T22:06:13.841Z,14.20
2022-12-08T22:08:41.825Z,15.00
2022-12-08T22:11:11.381Z,16.37
2022-12-08T22:13:39.777Z,17.33
2022-12-08T22:16:09.462Z,16.57
2022-12-08T22:18:37.188Z,14.13
2022-12-08T22:21:17.136Z,14.87
2022-12-08T22:23:44.505Z,15.13
2022-12-08T22:26:12.643Z,14.40
2022-12-08T22:28:41.665Z,15.53
2022-12-08T22:31:15.081Z,13.60
2022-12-08T22:33:42.850Z,13.13
2022-12-08T22:36:19.784Z,17.87
2022-12-08T22:38:48.324Z,14.00
2022-12-08T22:41:17.245Z,16.40
2022-12-08T22:43:45.314Z,13.20
2022-12-08T22:46:18.142Z,15.20
2022-12-08T22:48:45.640Z,15.20
2022-12-08T22:51:14.244Z,14.30
2022-12-08T22:53:41.822Z,13.87
2022-12-08T22:56:11.791Z,15.17
2022-12-08T22:58:39.929Z,17.00
2022-12-08T23:01:08.465Z,16.90
2022-12-08T23:03:35.604Z,16.00
2022-12-08T23:06:13.034Z,15.60
2022-12-08T23:08:40.708Z,13.77
2022-12-08T23:11:07.854Z,16.83
2022-12-08T23:13:34.653Z,17.00
2022-12-08T23:16:02.737Z,17.97
2022-12-08T23:18:29.503Z,17.97
2022-12-08T23:20:56.264Z,20.17
2022-12-08T23:23:23.169Z,24.97
2022-12-08T23:25:49.965Z,28.87
2022-12-08T23:28:18.125Z,24.23
2022-12-08T23:30:44.964Z,22.80
2022-12-08T23:33:12.083Z,22.73
2022-12-08T23:35:39.823Z,22.20
2022-12-08T23:38:07.102Z,17.53
2022-12-08T23:40:34.266Z,16.30
2022-12-08T23:43:01.225Z,14.10
2022-12-08T23:45:29.747Z,12.17
2022-12-08T23:47:56.604Z,12.83
2022-12-08T23:50:23.999Z,15.67
2022-12-08T23:52:50.934Z,13.37
2022-12-08T23:55:18.909Z,12.90
2022-12-08T23:57:45.589Z,13.30
